createdAt,value
2022-12-31T00:04:56.379Z,15.60
2022-12-31T00:14:59.945Z,15.50
2022-12-31T00:25:05.801Z,15.50
2022-12-31T00:35:10.896Z,15.50
2022-12-31T00:45:15.913Z,15.60
2022-12-31T00:55:38.255Z,15.70
2022-12-31T01:05:43.239Z,15.70
2022-12-31T01:15:46.932Z,15.60
2022-12-31T01:25:51.990Z,15.50
2022-12-31T01:35:56.161Z,16.10
2022-12-31T01:46:02.062Z,16.10
2022-12-31T01:56:06.978Z,15.70
2022-12-31T02:06:15.673Z,15.70
2022-12-31T02:16:26.134Z,16.20
2022-12-31T02:27:03.184Z,16.90
2022-12-31T02:37:31.098Z,16.90
2022-12-31T02:47:49.336Z,16.80
2022-12-31T02:58:00.785Z,16.90
2022-12-31T03:08:04.391Z,16.90
2022-12-31T03:18:11.516Z,16.90
2022-12-31T03:28:18.139Z,16.80
2022-12-31T03:38:23.617Z,16.90
2022-12-31T03:48:27.540Z,16.70
2022-12-31T03:58:32.596Z,16.70
2022-12-31T04:08:36.165Z,16.40
2022-12-31T04:18:41.344Z,16.40
2022-12-31T04:28:44.983Z,16.40
2022-12-31T04:38:50.215Z,16.30
2022-12-31T04:48:54.426Z,16.20
2022-12-31T04:58:59.635Z,16.20
2022-12-31T05:09:03.413Z,16.20
2022-12-31T05:19:09.705Z,16.30
2022-12-31T05:29:13.284Z,16.60
2022-12-31T05:49:58.827Z,17.10
2022-12-31T06:00:04.449Z,16.60
2022-12-31T06:10:09.077Z,16.50
2022-12-31T06:20:14.152Z,17.10
2022-12-31T06:30:17.900Z,17.00
2022-12-31T06:40:22.871Z,16.80
2022-12-31T06:50:26.934Z,16.00
2022-12-31T07:10:58.689Z,15.20
2022-12-31T07:21:04.418Z,14.90
2022-12-31T07:31:13.418Z,15.00
2022-12-31T07:41:29.529Z,15.00
2022-12-31T07:51:33.937Z,14.80
2022-12-31T08:01:49.334Z,14.70
2022-12-31T08:11:58.469Z,14.40
2022-12-31T08:22:19.629Z,14.20
2022-12-31T08:32:27.460Z,14.70
2022-12-31T08:42:41.361Z,15.20
2022-12-31T08:52:46.000Z,16.00
2022-12-31T09:03:34.624Z,16.50
2022-12-31T09:14:02.130Z,16.80
2022-12-31T09:24:09.641Z,17.30
2022-12-31T09:34:25.151Z,17.60
2022-12-31T09:45:08.448Z,17.60
2022-12-31T09:55:32.902Z,18.10
2022-12-31T10:06:07.463Z,18.50
2022-12-31T10:16:41.781Z,19.10
2022-12-31T10:27:02.843Z,19.50
2022-12-31T10:37:13.910Z,20.10
2022-12-31T10:48:03.287Z,20.60
2022-12-31T10:58:58.503Z,21.60
2022-12-31T11:09:31.262Z,21.10
2022-12-31T11:19:48.901Z,20.60
2022-12-31T11:30:07.241Z,20.00
2022-12-31T11:40:54.308Z,20.10
2022-12-31T11:51:17.306Z,19.80
2022-12-31T12:01:26.167Z,21.00
2022-12-31T12:11:34.275Z,21.80
2022-12-31T12:21:47.538Z,22.50
2022-12-31T12:31:59.799Z,22.80
2022-12-31T12:42:05.634Z,22.00
2022-12-31T12:52:30.800Z,21.90
2022-12-31T13:03:00.210Z,21.90
2022-12-31T13:13:23.877Z,21.50
2022-12-31T13:23:39.974Z,21.60
2022-12-31T13:33:48.399Z,21.40
2022-12-31T13:43:58.073Z,20.60
2022-12-31T13:54:08.161Z,20.80
2022-12-31T14:04:16.985Z,21.70
2022-12-31T14:14:32.046Z,21.60
2022-12-31T14:24:45.084Z,22.80
2022-12-31T14:34:57.308Z,23.00
2022-12-31T14:45:23.369Z,23.40
2022-12-31T14:55:30.629Z,22.30
2022-12-31T15:05:36.383Z,20.70
2022-12-31T15:16:16.846Z,21.30
2022-12-31T15:26:26.217Z,21.50
2022-12-31T15:36:32.953Z,22.20
2022-12-31T15:46:42.573Z,22.00
2022-12-31T15:56:49.502Z,20.50
2022-12-31T16:06:54.143Z,19.20
2022-12-31T16:17:02.411Z,18.30
2022-12-31T16:27:08.953Z,17.80
2022-12-31T16:37:18.504Z,17.20
2022-12-31T16:47:24.582Z,16.60
2022-12-31T16:57:32.547Z,16.40
2022-12-31T17:07:41.622Z,15.90
2022-12-31T17:17:50.342Z,15.90
2022-12-31T17:27:56.898Z,15.80
2022-12-31T17:38:31.076Z,15.70
2022-12-31T17:48:34.682Z,15.30
2022-12-31T17:58:45.344Z,14.50
2022-12-31T18:08:49.279Z,14.00
2022-12-31T18:19:01.229Z,14.10
2022-12-31T18:29:15.255Z,13.60
2022-12-31T18:39:20.271Z,13.40
2022-12-31T18:49:24.014Z,13.40
2022-12-31T18:59:29.096Z,13.40
2022-12-31T19:09:51.406Z,13.20
2022-12-31T19:20:04.357Z,13.00
2022-12-31T19:30:12.549Z,12.60
2022-12-31T19:40:20.005Z,12.40
2022-12-31T20:00:55.666Z,12.40
2022-12-31T20:11:09.611Z,12.30
2022-12-31T20:31:39.487Z,12.00
2022-12-31T20:41:44.545Z,11.60
2022-12-31T20:51:52.083Z,11.50
2022-12-31T21:02:20.890Z,11.20
2022-12-31T21:12:38.801Z,11.10
2022-12-31T21:22:43.909Z,11.30
2022-12-31T21:43:09.887Z,10.90
2022-12-31T21:53:16.535Z,10.90
2022-12-31T22:03:27.971Z,10.70
2022-12-31T22:13:32.024Z,10.70
2022-12-31T22:23:37.779Z,10.90
2022-12-31T22:33:41.416Z,10.90
2022-12-31T22:43:48.300Z,10.60
2022-12-31T22:53:52.244Z,10.50
2022-12-31T23:03:57.416Z,10.40
2022-12-31T23:14:18.361Z,10.20
2022-12-31T23:24:26.544Z,10.30
2022-12-31T23:34:30.511Z,10.20
2022-12-31T23:44:35.485Z,10.30
2022-12-31T23:54:39.140Z,10.20
